createdAt,value
2023-03-22T00:14:26.496Z,10.6
2023-03-22T00:29:26.446Z,10.4
2023-03-22T00:44:26.481Z,10.3
2023-03-22T00:59:26.445Z,10.2
2023-03-22T01:14:26.460Z,10.2
2023-03-22T01:29:26.440Z,10.2
2023-03-22T01:44:26.480Z,10.1
2023-03-22T01:59:26.483Z,10.1
2023-03-22T02:14:27.341Z,10
2023-03-22T02:29:26.485Z,9.9
2023-03-22T02:44:26.472Z,9.9
2023-03-22T02:59:26.457Z,9.9
2023-03-22T03:14:26.526Z,9.8
2023-03-22T03:29:26.456Z,9.7
2023-03-22T03:44:26.485Z,9.7
2023-03-22T03:59:26.470Z,9.8
2023-03-22T04:14:26.474Z,9.6
2023-03-22T04:29:26.452Z,9.6
2023-03-22T04:44:26.483Z,9.6
2023-03-22T04:59:26.494Z,9.6
2023-03-22T05:14:26.556Z,9.6
2023-03-22T05:29:26.487Z,9.8
2023-03-22T05:44:26.472Z,9.6
2023-03-22T05:59:26.458Z,9.6
2023-03-22T06:14:26.466Z,9.6
2023-03-22T06:29:26.502Z,9.7
2023-03-22T06:44:26.450Z,9.8
2023-03-22T06:59:26.478Z,10
2023-03-22T07:14:26.480Z,10.1
2023-03-22T07:29:26.477Z,10.1
2023-03-22T07:44:26.469Z,10.1
2023-03-22T07:59:26.454Z,10.4
2023-03-22T08:14:35.808Z,10.3
2023-03-22T08:29:26.479Z,10.4
2023-03-22T08:44:26.421Z,10.8
2023-03-22T08:59:26.446Z,10.9
2023-03-22T09:14:26.448Z,11
2023-03-22T09:29:26.447Z,11.4
2023-03-22T09:44:26.449Z,11.8
2023-03-22T09:59:26.415Z,12
2023-03-22T10:14:26.492Z,11.9
2023-03-22T10:29:26.425Z,11.9
2023-03-22T10:44:26.464Z,12.4
2023-03-22T10:59:26.499Z,12.1
2023-03-22T11:14:26.456Z,12.4
2023-03-22T11:29:26.446Z,13.1
2023-03-22T11:44:26.494Z,12.4
2023-03-22T11:59:26.451Z,12.8
2023-03-22T12:14:26.485Z,12.6
2023-03-22T12:29:26.439Z,12.7
2023-03-22T12:44:26.446Z,12.9
2023-03-22T12:59:26.466Z,13.3
2023-03-22T13:14:26.498Z,13.2
2023-03-22T13:29:26.493Z,13
2023-03-22T13:44:26.474Z,12.8
2023-03-22T13:59:26.493Z,12.9
2023-03-22T14:14:26.483Z,12.9
2023-03-22T14:59:26.451Z,12.8
2023-03-22T15:14:26.437Z,12.9
2023-03-22T15:29:26.440Z,12.9
2023-03-22T15:44:26.502Z,13.1
2023-03-22T15:59:26.453Z,13.1
2023-03-22T16:14:26.423Z,12.9
2023-03-22T16:29:26.446Z,12.8
2023-03-22T16:44:26.441Z,12.7
2023-03-22T16:59:26.428Z,12.7
2023-03-22T17:14:26.424Z,12.7
2023-03-22T17:29:26.416Z,12.6
2023-03-22T17:44:26.430Z,12.4
2023-03-22T17:59:26.446Z,12.4
2023-03-22T18:14:32.474Z,12.4
2023-03-22T18:29:26.423Z,12.4
2023-03-22T18:44:26.415Z,12.4
2023-03-22T18:59:26.430Z,12.3
2023-03-22T19:15:11.465Z,12.1
2023-03-22T19:29:26.411Z,11.9
2023-03-22T19:44:26.448Z,12
2023-03-22T19:59:31.351Z,12
2023-03-22T20:14:26.448Z,11.9
2023-03-22T20:29:26.429Z,11.9
2023-03-22T20:44:26.431Z,11.9
2023-03-22T20:59:26.450Z,11.8
2023-03-22T21:14:26.440Z,11.9
2023-03-22T21:29:26.448Z,11.8
2023-03-22T21:44:26.455Z,11.8
2023-03-22T21:59:26.424Z,11.9
2023-03-22T22:14:26.427Z,11.9
2023-03-22T22:29:26.394Z,11.8
2023-03-22T22:44:26.415Z,11.8
2023-03-22T22:59:26.447Z,11.8
2023-03-22T23:14:26.431Z,11.8
2023-03-22T23:29:26.423Z,11.8
2023-03-22T23:44:26.400Z,11.7
2023-03-22T23:59:26.442Z,11.6
